createdAt,value
2022-11-27T00:00:45.358Z,65.63
2022-11-27T00:01:48.217Z,68.97
2022-11-27T00:02:51.245Z,66.25
2022-11-27T00:03:55.753Z,71.90
2022-11-27T00:04:58.543Z,63.55
2022-11-27T00:06:01.121Z,72.35
2022-11-27T00:07:04.006Z,62.45
2022-11-27T00:08:06.699Z,69.15
2022-11-27T00:09:12.813Z,61.42
2022-11-27T00:10:15.601Z,58.78
2022-11-27T00:11:21.789Z,62.03
2022-11-27T00:12:24.435Z,66.78
2022-11-27T00:13:27.170Z,64.25
2022-11-27T00:14:30.282Z,71.70
2022-11-27T00:15:33.153Z,66.20
2022-11-27T00:16:35.849Z,68.38
2022-11-27T00:17:38.549Z,62.40
2022-11-27T00:18:41.450Z,63.05
2022-11-27T00:19:44.205Z,61.75
2022-11-27T00:20:46.867Z,59.05
2022-11-27T00:21:49.676Z,60.05
2022-11-27T00:22:52.421Z,59.00
2022-11-27T00:23:56.683Z,52.55
2022-11-27T00:24:59.465Z,54.80
2022-11-27T00:26:02.445Z,57.72
2022-11-27T00:27:05.227Z,54.88
2022-11-27T00:28:08.011Z,55.85
2022-11-27T00:29:10.835Z,57.85
2022-11-27T00:30:13.980Z,53.85
2022-11-27T00:31:29.513Z,54.45
2022-11-27T00:32:32.359Z,61.70
2022-11-27T00:33:35.073Z,74.97
2022-11-27T00:34:38.071Z,64.78
2022-11-27T00:35:41.325Z,67.60
2022-11-27T00:36:48.027Z,75.80
2022-11-27T00:37:51.232Z,63.78
2022-11-27T00:38:54.596Z,61.20
2022-11-27T00:39:57.244Z,65.43
2022-11-27T00:41:08.952Z,66.63
2022-11-27T00:42:11.706Z,68.57
2022-11-27T00:43:14.481Z,64.43
2022-11-27T00:44:17.279Z,65.10
2022-11-27T00:45:20.278Z,71.25
2022-11-27T00:46:29.841Z,76.85
2022-11-27T00:47:32.711Z,67.85
2022-11-27T00:48:35.646Z,62.63
2022-11-27T00:49:38.515Z,65.22
2022-11-27T00:50:41.226Z,61.60
2022-11-27T00:51:43.953Z,62.15
2022-11-27T00:52:46.799Z,60.85
2022-11-27T00:53:49.658Z,65.70
2022-11-27T00:54:52.257Z,67.10
2022-11-27T00:55:56.496Z,65.55
2022-11-27T00:56:59.193Z,69.15
2022-11-27T00:58:01.841Z,61.45
2022-11-27T00:59:06.117Z,63.50
2022-11-27T01:00:09.593Z,59.83
2022-11-27T01:01:24.423Z,62.42
2022-11-27T01:02:27.170Z,63.25
2022-11-27T01:03:31.193Z,57.85
2022-11-27T01:04:34.017Z,60.28
2022-11-27T01:05:37.375Z,62.58
2022-11-27T01:06:40.333Z,60.15
2022-11-27T01:07:43.317Z,59.78
2022-11-27T01:08:46.790Z,58.78
2022-11-27T01:09:49.674Z,63.30
2022-11-27T01:10:57.288Z,56.50
2022-11-27T01:12:00.164Z,55.67
2022-11-27T01:13:02.936Z,65.68
2022-11-27T01:14:10.365Z,55.40
2022-11-27T01:15:13.074Z,58.25
2022-11-27T01:16:18.837Z,58.20
2022-11-27T01:17:21.645Z,59.10
2022-11-27T01:18:24.267Z,50.25
2022-11-27T01:19:26.939Z,59.88
2022-11-27T01:20:29.674Z,54.33
2022-11-27T01:21:34.841Z,52.30
2022-11-27T01:22:37.522Z,49.28
2022-11-27T01:23:40.790Z,49.05
2022-11-27T01:24:43.959Z,56.47
2022-11-27T01:25:46.907Z,49.70
2022-11-27T01:26:49.978Z,57.55
2022-11-27T01:27:52.818Z,54.45
2022-11-27T01:28:56.969Z,49.95
2022-11-27T01:30:00.360Z,49.65
2022-11-27T01:31:07.756Z,53.53
2022-11-27T01:32:10.542Z,58.22
2022-11-27T01:33:13.184Z,51.50
2022-11-27T01:34:17.819Z,51.58
2022-11-27T01:35:20.475Z,53.28
2022-11-27T01:36:23.640Z,51.35
2022-11-27T01:37:26.356Z,49.72
2022-11-27T01:38:30.065Z,53.03
2022-11-27T01:39:32.952Z,46.97
2022-11-27T01:40:35.808Z,53.33
2022-11-27T01:41:41.743Z,49.97
2022-11-27T01:42:44.393Z,49.97
2022-11-27T01:43:49.806Z,51.92
2022-11-27T01:44:55.019Z,49.70
2022-11-27T01:45:57.717Z,48.75
2022-11-27T01:47:07.688Z,50.42
2022-11-27T01:48:11.917Z,45.92
2022-11-27T01:49:35.029Z,58.05
2022-11-27T01:50:39.166Z,50.97
2022-11-27T01:51:45.570Z,49.38
2022-11-27T01:52:51.999Z,52.92
2022-11-27T01:53:55.554Z,50.05
2022-11-27T01:55:23.374Z,46.50
2022-11-27T01:56:27.512Z,53.03
2022-11-27T01:57:38.911Z,47.42
2022-11-27T01:58:41.946Z,45.38
2022-11-27T01:59:45.643Z,50.00
2022-11-27T02:00:48.375Z,49.50
2022-11-27T02:01:51.254Z,45.58
2022-11-27T02:02:54.140Z,50.20
2022-11-27T02:03:59.905Z,47.90
2022-11-27T02:05:02.883Z,49.45
2022-11-27T02:06:05.985Z,54.65
2022-11-27T02:07:08.889Z,50.45
2022-11-27T02:08:14.122Z,45.08
2022-11-27T02:09:17.053Z,48.30
2022-11-27T02:10:20.093Z,51.03
2022-11-27T02:11:38.359Z,53.95
2022-11-27T02:12:53.671Z,59.13
2022-11-27T02:14:16.835Z,49.63
2022-11-27T02:15:28.602Z,51.05
2022-11-27T02:16:37.168Z,57.80
2022-11-27T02:18:02.233Z,53.10
2022-11-27T02:19:19.723Z,50.88
2022-11-27T02:20:59.474Z,51.45
2022-11-27T02:22:37.929Z,48.42
2022-11-27T02:24:16.941Z,57.75
2022-11-27T02:25:57.154Z,54.80
2022-11-27T02:27:18.901Z,57.67
2022-11-27T02:28:44.225Z,51.67
2022-11-27T02:29:48.810Z,49.72
2022-11-27T02:30:57.929Z,54.10
2022-11-27T02:32:32.479Z,51.05
2022-11-27T02:33:39.614Z,58.33
2022-11-27T02:34:53.745Z,56.78
2022-11-27T02:36:01.651Z,59.30
2022-11-27T02:37:16.666Z,54.47
2022-11-27T02:38:28.432Z,54.00
2022-11-27T02:39:54.607Z,54.55
2022-11-27T02:41:30.736Z,52.65
2022-11-27T02:42:38.583Z,55.80
2022-11-27T02:43:45.899Z,56.38
2022-11-27T02:44:58.949Z,56.60
2022-11-27T02:46:03.198Z,55.55
2022-11-27T02:47:06.686Z,61.85
2022-11-27T02:48:10.700Z,60.55
2022-11-27T02:49:16.807Z,56.33
2022-11-27T02:50:22.715Z,55.15
2022-11-27T02:51:49.283Z,60.08
2022-11-27T02:52:54.340Z,52.33
2022-11-27T02:54:02.540Z,54.55
2022-11-27T02:55:08.913Z,61.20
2022-11-27T02:56:14.535Z,62.50
2022-11-27T02:57:17.996Z,55.50
2022-11-27T02:58:23.252Z,65.40
2022-11-27T02:59:28.833Z,56.17
2022-11-27T03:00:32.944Z,56.92
2022-11-27T03:01:40.145Z,58.10
2022-11-27T03:02:57.266Z,60.83
2022-11-27T03:04:01.908Z,56.63
2022-11-27T03:05:05.920Z,60.20
2022-11-27T03:06:14.397Z,58.28
2022-11-27T03:07:23.500Z,63.42
2022-11-27T03:08:51.825Z,63.67
2022-11-27T03:09:58.431Z,64.97
2022-11-27T03:11:07.498Z,59.63
2022-11-27T03:12:11.696Z,62.65
2022-11-27T03:13:14.592Z,59.53
2022-11-27T03:14:17.516Z,63.47
2022-11-27T03:15:21.237Z,62.10
2022-11-27T03:16:29.412Z,57.40
2022-11-27T03:17:48.190Z,63.97
2022-11-27T03:19:11.879Z,66.05
2022-11-27T03:20:23.696Z,53.63
2022-11-27T03:21:32.890Z,58.08
2022-11-27T03:22:35.726Z,60.05
2022-11-27T03:23:38.725Z,59.63
2022-11-27T03:24:41.801Z,66.35
2022-11-27T03:25:44.644Z,68.03
2022-11-27T03:26:47.650Z,62.30
2022-11-27T03:27:57.008Z,68.38
2022-11-27T03:29:01.105Z,67.55
2022-11-27T03:30:06.792Z,63.80
2022-11-27T03:31:10.062Z,64.32
2022-11-27T03:32:13.115Z,57.53
2022-11-27T03:33:15.821Z,66.75
2022-11-27T03:34:18.868Z,63.78
2022-11-27T03:35:24.753Z,73.80
2022-11-27T03:36:27.459Z,64.72
2022-11-27T03:37:30.242Z,61.58
2022-11-27T03:38:32.874Z,70.22
2022-11-27T03:39:35.724Z,67.57
2022-11-27T03:41:10.096Z,67.97
2022-11-27T03:42:28.062Z,66.22
2022-11-27T03:43:35.498Z,67.50
2022-11-27T03:44:53.570Z,68.20
2022-11-27T03:46:02.521Z,61.40
2022-11-27T03:47:07.196Z,72.93
2022-11-27T03:48:30.410Z,69.78
2022-11-27T03:49:50.070Z,70.45
2022-11-27T03:50:58.254Z,69.03
2022-11-27T03:52:22.304Z,69.40
2022-11-27T03:53:56.673Z,71.10
2022-11-27T03:55:09.724Z,57.08
2022-11-27T03:56:31.412Z,62.88
2022-11-27T03:58:40.968Z,74.90
2022-11-27T03:59:44.869Z,63.33
2022-11-27T04:00:48.660Z,60.90
2022-11-27T04:01:51.516Z,75.90
2022-11-27T04:02:54.233Z,71.70
2022-11-27T04:03:56.959Z,67.60
2022-11-27T04:04:59.616Z,73.70
2022-11-27T04:06:02.399Z,61.65
2022-11-27T04:07:05.268Z,71.88
2022-11-27T04:08:07.906Z,71.53
2022-11-27T04:09:10.699Z,70.20
2022-11-27T04:10:14.120Z,66.88
2022-11-27T04:11:16.815Z,69.40
2022-11-27T04:12:19.756Z,71.82
2022-11-27T04:13:22.431Z,70.88
2022-11-27T04:14:25.087Z,70.57
2022-11-27T04:15:27.968Z,70.85
2022-11-27T04:16:30.955Z,70.60
2022-11-27T04:17:33.766Z,71.05
2022-11-27T04:18:36.482Z,71.40
2022-11-27T04:19:39.283Z,74.88
2022-11-27T04:20:42.027Z,70.53
2022-11-27T04:21:44.701Z,75.57
2022-11-27T04:22:47.882Z,70.82
2022-11-27T04:23:50.741Z,84.38
2022-11-27T04:24:53.367Z,71.90
2022-11-27T04:25:57.868Z,75.82
2022-11-27T04:27:00.672Z,77.82
2022-11-27T04:28:03.534Z,71.45
2022-11-27T04:29:06.320Z,76.15
2022-11-27T04:30:09.723Z,80.45
2022-11-27T04:31:12.498Z,79.20
2022-11-27T04:32:15.656Z,80.22
2022-11-27T04:33:18.578Z,69.22
2022-11-27T04:34:21.237Z,78.15
2022-11-27T04:35:23.886Z,76.80
2022-11-27T04:36:28.908Z,76.72
2022-11-27T04:37:31.629Z,75.43
2022-11-27T04:38:34.417Z,77.25
2022-11-27T04:39:36.966Z,78.25
2022-11-27T04:40:41.481Z,73.53
2022-11-27T04:41:44.148Z,76.97
2022-11-27T04:42:46.824Z,77.07
2022-11-27T04:43:49.947Z,85.70
2022-11-27T04:44:52.591Z,90.03
2022-11-27T04:45:55.331Z,79.28
2022-11-27T04:46:58.065Z,87.93
2022-11-27T04:48:02.294Z,82.97
2022-11-27T04:49:05.083Z,87.30
2022-11-27T04:50:08.644Z,79.63
2022-11-27T04:51:12.560Z,73.05
2022-11-27T04:52:15.683Z,78.88
2022-11-27T04:53:18.827Z,72.57
2022-11-27T04:54:21.550Z,77.95
2022-11-27T04:55:24.347Z,85.30
2022-11-27T04:56:27.459Z,77.03
2022-11-27T04:57:30.155Z,85.20
2022-11-27T04:58:34.550Z,83.00
2022-11-27T04:59:38.080Z,81.90
2022-11-27T05:00:40.930Z,80.60
2022-11-27T05:01:43.716Z,94.93
2022-11-27T05:02:46.641Z,83.25
2022-11-27T05:03:49.642Z,85.10
2022-11-27T05:04:52.383Z,90.78
2022-11-27T05:05:58.652Z,89.40
2022-11-27T05:07:01.316Z,80.75
2022-11-27T05:08:04.953Z,88.20
2022-11-27T05:09:07.987Z,92.60
2022-11-27T05:10:11.661Z,85.75
2022-11-27T05:11:16.071Z,81.88
2022-11-27T05:12:18.804Z,87.60
2022-11-27T05:13:21.485Z,81.82
2022-11-27T05:14:29.275Z,84.45
2022-11-27T05:15:31.975Z,85.82
2022-11-27T05:16:34.745Z,90.00
2022-11-27T05:17:37.415Z,86.15
2022-11-27T05:18:40.096Z,94.53
2022-11-27T05:19:42.952Z,79.18
2022-11-27T05:20:45.916Z,97.47
2022-11-27T05:21:50.826Z,95.95
2022-11-27T05:22:53.743Z,91.05
2022-11-27T05:23:56.471Z,97.28
2022-11-27T05:24:59.233Z,81.13
2022-11-27T05:26:03.514Z,89.10
2022-11-27T05:27:06.368Z,94.65
2022-11-27T05:28:09.020Z,89.18
2022-11-27T05:29:12.352Z,83.32
2022-11-27T05:30:14.995Z,93.47
2022-11-27T05:31:17.900Z,89.35
2022-11-27T05:32:21.990Z,85.35
2022-11-27T05:33:24.729Z,84.95
2022-11-27T05:34:27.471Z,89.15
2022-11-27T05:35:30.113Z,75.45
2022-11-27T05:36:34.147Z,87.13
2022-11-27T05:37:36.782Z,84.85
2022-11-27T05:38:41.258Z,82.15
2022-11-27T05:39:44.091Z,93.80
2022-11-27T05:40:46.826Z,82.95
2022-11-27T05:41:49.479Z,81.18
2022-11-27T05:42:52.377Z,91.95
2022-11-27T05:43:55.175Z,91.25
2022-11-27T05:44:58.603Z,84.10
2022-11-27T05:46:08.480Z,88.60
2022-11-27T05:47:11.172Z,89.15
2022-11-27T05:48:14.306Z,98.40
2022-11-27T05:49:17.031Z,99.55
2022-11-27T05:50:21.295Z,93.68
2022-11-27T05:51:24.838Z,78.43
2022-11-27T05:52:27.659Z,85.13
2022-11-27T05:53:30.484Z,90.03
2022-11-27T05:54:33.266Z,95.40
2022-11-27T05:55:36.181Z,92.57
2022-11-27T05:56:38.816Z,87.05
2022-11-27T05:57:41.578Z,82.95
2022-11-27T05:58:45.998Z,95.07
2022-11-27T05:59:48.812Z,93.25
2022-11-27T06:00:51.643Z,86.25
2022-11-27T06:01:55.236Z,86.65
2022-11-27T06:02:57.988Z,81.57
2022-11-27T06:04:01.289Z,87.50
2022-11-27T06:05:04.264Z,78.68
2022-11-27T06:06:15.186Z,87.18
2022-11-27T06:07:17.867Z,82.50
2022-11-27T06:08:21.162Z,87.05
2022-11-27T06:09:23.883Z,80.03
2022-11-27T06:10:26.614Z,87.57
2022-11-27T06:11:29.267Z,85.97
2022-11-27T06:12:32.913Z,76.50
2022-11-27T06:13:36.979Z,86.90
2022-11-27T06:14:40.231Z,79.05
2022-11-27T06:15:43.750Z,86.55
2022-11-27T06:16:47.109Z,82.78
2022-11-27T06:17:50.557Z,81.82
2022-11-27T06:18:55.126Z,73.50
2022-11-27T06:19:57.980Z,75.78
2022-11-27T06:21:00.749Z,83.93
2022-11-27T06:22:03.530Z,81.88
2022-11-27T06:23:06.221Z,77.85
2022-11-27T06:24:11.127Z,80.82
2022-11-27T06:25:15.700Z,81.20
2022-11-27T06:26:23.434Z,85.63
2022-11-27T06:27:27.392Z,81.85
2022-11-27T06:28:31.026Z,79.22
2022-11-27T06:29:33.768Z,75.57
2022-11-27T06:30:38.124Z,88.22
2022-11-27T06:31:41.198Z,82.68
2022-11-27T06:32:44.032Z,80.85
2022-11-27T06:33:50.015Z,78.47
2022-11-27T06:34:52.765Z,76.35
2022-11-27T06:35:55.945Z,78.82
2022-11-27T06:36:58.658Z,84.03
2022-11-27T06:38:01.423Z,81.72
2022-11-27T06:39:06.194Z,77.30
2022-11-27T06:40:09.386Z,77.97
2022-11-27T06:41:17.636Z,88.50
2022-11-27T06:42:20.442Z,78.43
2022-11-27T06:43:23.055Z,85.47
2022-11-27T06:44:25.728Z,78.40
2022-11-27T06:45:29.335Z,81.90
2022-11-27T06:46:32.371Z,78.10
2022-11-27T06:47:35.047Z,77.47
2022-11-27T06:48:38.031Z,72.63
2022-11-27T06:49:40.911Z,73.57
2022-11-27T06:50:43.853Z,74.30
2022-11-27T06:51:49.163Z,75.22
2022-11-27T06:52:51.839Z,72.10
2022-11-27T06:53:54.760Z,70.80
2022-11-27T06:54:57.535Z,80.80
2022-11-27T06:56:09.237Z,72.13
2022-11-27T06:57:14.506Z,87.75
2022-11-27T06:58:17.658Z,80.85
2022-11-27T06:59:21.240Z,79.85
2022-11-27T07:00:23.959Z,70.13
2022-11-27T07:01:28.803Z,73.72
2022-11-27T07:02:31.683Z,67.10
2022-11-27T07:03:34.858Z,78.80
2022-11-27T07:04:37.790Z,80.22
2022-11-27T07:05:40.696Z,81.22
2022-11-27T07:06:43.952Z,78.75
2022-11-27T07:07:46.747Z,80.53
2022-11-27T07:08:49.678Z,70.70
2022-11-27T07:09:52.321Z,77.95
2022-11-27T07:10:55.118Z,76.20
2022-11-27T07:11:57.806Z,79.20
2022-11-27T07:13:00.759Z,79.38
2022-11-27T07:14:04.971Z,81.10
2022-11-27T07:15:08.618Z,79.55
2022-11-27T07:16:13.714Z,77.53
2022-11-27T07:17:16.512Z,76.22
2022-11-27T07:18:19.150Z,77.75
2022-11-27T07:19:21.760Z,80.75
2022-11-27T07:20:24.703Z,83.57
2022-11-27T07:21:28.242Z,78.40
2022-11-27T07:22:32.754Z,78.47
2022-11-27T07:23:35.983Z,78.80
2022-11-27T07:24:38.988Z,79.00
2022-11-27T07:25:41.870Z,84.13
2022-11-27T07:26:44.620Z,76.63
2022-11-27T07:27:47.297Z,81.07
2022-11-27T07:28:50.374Z,72.55
2022-11-27T07:29:53.574Z,78.53
2022-11-27T07:30:57.668Z,72.18
2022-11-27T07:32:00.553Z,82.65
2022-11-27T07:33:03.623Z,82.03
2022-11-27T07:34:11.684Z,77.95
2022-11-27T07:35:17.130Z,78.63
2022-11-27T07:36:26.561Z,77.40
2022-11-27T07:37:32.569Z,78.90
2022-11-27T07:38:35.341Z,86.78
2022-11-27T07:40:00.874Z,74.22
2022-11-27T07:41:04.989Z,79.57
2022-11-27T07:42:37.562Z,81.97
2022-11-27T07:43:32.480Z,82.75
2022-11-27T07:44:35.176Z,75.45
2022-11-27T07:45:37.892Z,73.85
2022-11-27T07:46:40.730Z,73.88
2022-11-27T07:47:43.424Z,74.72
2022-11-27T07:48:46.411Z,82.13
2022-11-27T07:49:49.092Z,82.25
2022-11-27T07:50:51.843Z,79.18
2022-11-27T07:51:54.872Z,82.10
2022-11-27T07:52:58.389Z,87.32
2022-11-27T07:54:01.462Z,76.28
2022-11-27T07:55:05.298Z,81.43
2022-11-27T07:56:10.603Z,77.28
2022-11-27T07:57:13.327Z,79.38
2022-11-27T07:58:16.163Z,77.07
2022-11-27T07:59:18.932Z,78.07
2022-11-27T08:00:22.518Z,74.93
2022-11-27T08:01:25.250Z,78.95
2022-11-27T08:02:28.047Z,79.88
2022-11-27T08:03:30.770Z,76.05
2022-11-27T08:04:33.535Z,87.88
2022-11-27T08:05:37.765Z,84.43
2022-11-27T08:06:40.435Z,78.45
2022-11-27T08:07:43.249Z,72.82
2022-11-27T08:08:46.269Z,78.50
2022-11-27T08:09:49.177Z,82.97
2022-11-27T08:10:52.206Z,86.15
2022-11-27T08:11:54.960Z,83.38
2022-11-27T08:12:58.311Z,78.70
2022-11-27T08:14:03.666Z,81.97
2022-11-27T08:15:07.382Z,85.70
2022-11-27T08:16:10.221Z,83.35
2022-11-27T08:17:13.323Z,78.97
2022-11-27T08:18:16.315Z,81.80
2022-11-27T08:19:19.240Z,83.18
2022-11-27T08:20:22.248Z,80.18
2022-11-27T08:21:25.311Z,77.78
2022-11-27T08:22:28.020Z,78.32
2022-11-27T08:23:30.833Z,83.13
2022-11-27T08:24:34.062Z,82.97
2022-11-27T08:25:38.237Z,85.45
2022-11-27T08:26:40.999Z,80.85
2022-11-27T08:27:43.794Z,78.03
2022-11-27T08:28:46.964Z,71.32
2022-11-27T08:29:49.708Z,77.85
2022-11-27T08:30:59.357Z,79.57
2022-11-27T08:32:02.164Z,71.82
2022-11-27T08:33:04.955Z,87.95
2022-11-27T08:34:08.285Z,75.18
2022-11-27T08:35:12.319Z,77.47
2022-11-27T08:36:18.327Z,84.97
2022-11-27T08:37:22.037Z,83.43
2022-11-27T08:38:25.675Z,81.70
2022-11-27T08:39:28.463Z,77.40
2022-11-27T08:40:31.181Z,88.70
2022-11-27T08:41:34.077Z,79.00
2022-11-27T08:42:36.812Z,80.25
2022-11-27T08:43:40.650Z,81.55
2022-11-27T08:44:43.532Z,77.00
2022-11-27T08:45:46.497Z,80.35
2022-11-27T08:46:49.419Z,85.30
2022-11-27T08:47:52.137Z,78.35
2022-11-27T08:48:54.860Z,77.55
2022-11-27T08:49:58.262Z,79.43
2022-11-27T08:51:05.989Z,80.60
2022-11-27T08:52:10.658Z,71.75
2022-11-27T08:53:13.696Z,78.82
2022-11-27T08:54:16.510Z,75.10
2022-11-27T08:55:21.020Z,72.13
2022-11-27T08:56:25.251Z,75.75
2022-11-27T08:57:28.052Z,75.55
2022-11-27T08:58:32.161Z,78.45
2022-11-27T08:59:34.843Z,76.82
2022-11-27T09:00:38.984Z,87.03
2022-11-27T09:01:42.159Z,76.60
2022-11-27T09:02:44.878Z,84.30
2022-11-27T09:03:48.337Z,82.05
2022-11-27T09:04:51.174Z,74.13
2022-11-27T09:05:54.912Z,75.78
2022-11-27T09:06:59.617Z,70.07
2022-11-27T09:08:05.493Z,73.15
2022-11-27T09:09:09.708Z,80.18
2022-11-27T09:10:12.496Z,78.32
2022-11-27T09:11:17.468Z,79.45
2022-11-27T09:12:20.898Z,77.55
2022-11-27T09:13:23.814Z,75.70
2022-11-27T09:14:26.526Z,80.80
2022-11-27T09:15:29.351Z,77.22
2022-11-27T09:16:32.668Z,79.72
2022-11-27T09:17:35.692Z,73.70
2022-11-27T09:18:38.594Z,75.93
2022-11-27T09:19:41.344Z,72.68
2022-11-27T09:20:44.059Z,75.68
2022-11-27T09:21:49.264Z,75.38
2022-11-27T09:22:52.560Z,73.65
2022-11-27T09:23:58.996Z,80.22
2022-11-27T09:25:02.187Z,75.13
2022-11-27T09:26:07.777Z,75.53
2022-11-27T09:27:10.856Z,71.00
2022-11-27T09:28:13.567Z,73.20
2022-11-27T09:29:16.604Z,68.13
2022-11-27T09:30:19.530Z,72.25
2022-11-27T09:31:22.919Z,77.15
2022-11-27T09:32:25.786Z,77.88
2022-11-27T09:33:30.899Z,71.18
2022-11-27T09:34:37.433Z,80.82
2022-11-27T09:35:40.872Z,74.00
2022-11-27T09:36:43.924Z,72.90
2022-11-27T09:37:46.781Z,73.82
2022-11-27T09:38:50.280Z,65.90
2022-11-27T09:39:53.101Z,75.63
2022-11-27T09:41:06.511Z,67.72
2022-11-27T09:42:15.779Z,67.60
2022-11-27T09:43:25.133Z,64.18
2022-11-27T09:44:52.137Z,72.15
2022-11-27T09:46:01.349Z,70.07
2022-11-27T09:47:19.989Z,65.72
2022-11-27T09:48:34.681Z,68.70
2022-11-27T09:49:54.860Z,69.22
2022-11-27T09:50:59.629Z,71.03
2022-11-27T09:52:06.731Z,74.47
2022-11-27T09:53:12.397Z,68.22
2022-11-27T09:54:39.017Z,74.40
2022-11-27T09:55:48.873Z,73.30
2022-11-27T09:56:53.601Z,65.43
2022-11-27T09:58:03.460Z,71.88
2022-11-27T09:59:14.776Z,79.35
2022-11-27T10:00:20.356Z,77.38
2022-11-27T10:01:41.920Z,80.32
2022-11-27T10:02:49.315Z,71.43
2022-11-27T10:03:52.767Z,70.38
2022-11-27T10:05:13.339Z,72.95
2022-11-27T10:06:31.643Z,76.75
2022-11-27T10:08:06.739Z,71.50
2022-11-27T10:09:31.755Z,73.07
2022-11-27T10:10:44.825Z,69.40
2022-11-27T10:12:21.387Z,72.90
2022-11-27T10:13:59.621Z,73.78
2022-11-27T10:15:05.263Z,70.72
2022-11-27T10:16:18.475Z,69.78
2022-11-27T10:17:29.891Z,67.95
2022-11-27T10:20:01.214Z,70.45
2022-11-27T10:21:12.705Z,65.47
2022-11-27T10:22:38.396Z,69.15
2022-11-27T10:23:50.479Z,73.82
2022-11-27T10:25:02.035Z,68.90
2022-11-27T10:26:18.607Z,67.50
2022-11-27T10:27:25.944Z,76.63
2022-11-27T10:28:51.462Z,73.75
2022-11-27T10:29:55.890Z,69.97
2022-11-27T10:31:12.687Z,79.13
2022-11-27T10:32:52.926Z,65.75
2022-11-27T10:33:50.569Z,67.88
2022-11-27T10:34:57.411Z,77.57
2022-11-27T10:36:01.344Z,68.25
2022-11-27T10:37:12.341Z,73.15
2022-11-27T10:38:19.969Z,74.25
2022-11-27T10:39:33.189Z,70.10
2022-11-27T10:41:09.822Z,80.32
2022-11-27T10:43:05.377Z,72.97
2022-11-27T10:44:32.221Z,67.50
2022-11-27T10:45:53.145Z,75.07
2022-11-27T10:47:02.103Z,71.72
2022-11-27T10:48:05.085Z,79.45
2022-11-27T10:49:09.458Z,68.68
2022-11-27T10:50:17.607Z,73.68
2022-11-27T10:51:41.154Z,69.93
2022-11-27T10:53:03.936Z,74.47
2022-11-27T10:54:09.967Z,78.97
2022-11-27T10:55:23.189Z,70.93
2022-11-27T10:56:37.088Z,73.40
2022-11-27T10:58:01.392Z,71.65
2022-11-27T10:59:15.422Z,70.20
2022-11-27T11:00:23.675Z,72.35
2022-11-27T11:01:29.441Z,72.85
2022-11-27T11:02:38.742Z,65.97
2022-11-27T11:03:41.678Z,72.53
2022-11-27T11:04:44.447Z,70.75
2022-11-27T11:06:20.232Z,74.13
2022-11-27T11:07:28.775Z,68.10
2022-11-27T11:08:33.030Z,73.35
2022-11-27T11:09:36.380Z,71.18
2022-11-27T11:10:52.852Z,74.20
2022-11-27T11:12:13.350Z,72.50
2022-11-27T11:13:27.261Z,67.30
2022-11-27T11:14:31.294Z,74.10
2022-11-27T11:15:34.097Z,77.28
2022-11-27T11:16:42.990Z,73.28
2022-11-27T11:18:51.992Z,65.22
2022-11-27T11:19:54.725Z,71.03
2022-11-27T11:20:59.627Z,69.38
2022-11-27T11:22:14.623Z,68.85
2022-11-27T11:23:35.709Z,68.80
2022-11-27T11:24:40.298Z,65.85
2022-11-27T11:25:52.733Z,67.75
2022-11-27T11:27:05.606Z,70.47
2022-11-27T11:28:16.995Z,72.18
2022-11-27T11:29:30.565Z,64.15
2022-11-27T11:30:34.757Z,70.10
2022-11-27T11:31:40.264Z,72.03
2022-11-27T11:32:45.202Z,66.07
2022-11-27T11:33:51.324Z,73.18
2022-11-27T11:35:44.419Z,69.55
2022-11-27T11:37:04.757Z,76.43
2022-11-27T11:38:15.948Z,66.10
2022-11-27T11:39:24.952Z,68.65
2022-11-27T11:40:33.433Z,64.00
2022-11-27T11:41:37.840Z,67.32
2022-11-27T11:43:26.214Z,60.70
2022-11-27T11:44:37.293Z,63.72
2022-11-27T11:45:47.027Z,65.35
2022-11-27T11:46:54.606Z,62.05
2022-11-27T11:48:02.214Z,60.75
2022-11-27T11:49:17.446Z,58.65
2022-11-27T11:50:33.295Z,66.10
2022-11-27T11:51:50.130Z,61.83
2022-11-27T11:53:11.485Z,76.72
2022-11-27T11:54:33.236Z,63.95
2022-11-27T11:55:40.524Z,60.45
2022-11-27T11:56:46.138Z,64.32
2022-11-27T11:57:57.075Z,62.05
2022-11-27T12:00:29.729Z,65.85
2022-11-27T12:02:11.072Z,70.10
2022-11-27T12:03:22.879Z,56.65
2022-11-27T12:04:44.742Z,58.55
2022-11-27T12:06:06.522Z,64.13
2022-11-27T12:07:09.682Z,58.80
2022-11-27T12:08:26.898Z,64.20
2022-11-27T12:10:02.450Z,56.72
2022-11-27T12:11:09.988Z,66.80
2022-11-27T12:12:22.187Z,68.80
2022-11-27T12:13:45.762Z,65.88
2022-11-27T12:14:58.057Z,63.75
2022-11-27T12:16:09.682Z,63.85
2022-11-27T12:17:12.641Z,59.88
2022-11-27T12:18:21.156Z,59.45
2022-11-27T12:19:32.276Z,66.95
2022-11-27T12:20:57.985Z,60.17
2022-11-27T12:22:15.961Z,57.95
2022-11-27T12:23:41.303Z,62.47
2022-11-27T12:24:49.577Z,63.53
2022-11-27T12:26:01.374Z,57.00
2022-11-27T12:27:12.029Z,59.60
2022-11-27T12:28:53.181Z,56.22
2022-11-27T12:30:07.131Z,64.03
2022-11-27T12:31:18.663Z,58.65
2022-11-27T12:32:45.936Z,54.70
2022-11-27T12:34:00.385Z,65.00
2022-11-27T12:35:24.579Z,60.03
2022-11-27T12:37:06.388Z,59.78
2022-11-27T12:38:28.740Z,61.33
2022-11-27T12:39:55.692Z,58.25
2022-11-27T12:41:23.573Z,54.08
2022-11-27T12:43:04.677Z,57.47
2022-11-27T12:44:18.398Z,56.08
2022-11-27T12:45:29.459Z,60.85
2022-11-27T12:46:49.726Z,62.35
2022-11-27T12:47:58.124Z,60.58
2022-11-27T12:49:11.480Z,60.35
2022-11-27T12:50:26.198Z,59.30
2022-11-27T12:51:34.589Z,64.57
2022-11-27T12:52:42.779Z,62.30
2022-11-27T12:53:59.573Z,65.93
2022-11-27T12:55:23.132Z,59.65
2022-11-27T12:56:37.503Z,62.00
2022-11-27T12:57:46.282Z,65.40
2022-11-27T12:58:55.301Z,60.35
2022-11-27T12:59:59.869Z,63.63
2022-11-27T13:01:12.753Z,67.68
2022-11-27T13:02:30.184Z,66.68
2022-11-27T13:03:44.405Z,60.15
2022-11-27T13:05:10.674Z,58.22
2022-11-27T13:06:16.911Z,54.47
2022-11-27T13:07:25.547Z,72.43
2022-11-27T13:09:00.032Z,69.15
2022-11-27T13:10:09.086Z,57.33
2022-11-27T13:11:14.104Z,66.28
2022-11-27T13:12:34.070Z,60.22
2022-11-27T13:13:39.532Z,59.00
2022-11-27T13:14:43.162Z,51.20
2022-11-27T13:15:59.281Z,52.30
2022-11-27T13:17:05.069Z,56.30
2022-11-27T13:18:30.234Z,53.38
2022-11-27T13:19:41.061Z,52.95
2022-11-27T13:21:48.120Z,63.42
2022-11-27T13:22:51.274Z,57.40
2022-11-27T13:23:54.516Z,52.30
2022-11-27T13:25:01.086Z,56.72
2022-11-27T13:26:06.716Z,57.67
2022-11-27T13:27:23.786Z,53.65
2022-11-27T13:28:46.064Z,51.22
2022-11-27T13:29:48.583Z,56.47
2022-11-27T13:30:53.133Z,50.55
2022-11-27T13:31:59.217Z,52.58
2022-11-27T13:33:02.788Z,58.85
2022-11-27T13:34:08.628Z,55.13
2022-11-27T13:35:39.927Z,59.22
2022-11-27T13:36:47.193Z,52.97
2022-11-27T13:38:15.918Z,56.33
2022-11-27T13:39:24.275Z,58.38
2022-11-27T13:40:33.316Z,54.00
2022-11-27T13:41:40.133Z,57.97
2022-11-27T13:42:45.493Z,56.97
2022-11-27T13:43:50.270Z,52.22
2022-11-27T13:45:01.794Z,58.60
2022-11-27T13:46:14.909Z,55.90
2022-11-27T13:47:19.261Z,54.90
2022-11-27T13:48:34.173Z,58.72
2022-11-27T13:49:38.087Z,60.17
2022-11-27T13:50:44.806Z,54.53
2022-11-27T13:51:47.504Z,54.65
2022-11-27T13:52:54.800Z,52.67
2022-11-27T13:54:22.288Z,55.70
2022-11-27T13:55:31.858Z,54.47
2022-11-27T13:56:34.705Z,53.35
2022-11-27T13:57:38.479Z,49.85
2022-11-27T13:58:42.654Z,52.33
2022-11-27T14:00:16.333Z,57.13
2022-11-27T14:01:23.966Z,57.22
2022-11-27T14:02:49.667Z,56.00
2022-11-27T14:03:52.718Z,58.63
2022-11-27T14:04:56.578Z,53.72
2022-11-27T14:05:59.625Z,52.58
2022-11-27T14:07:11.374Z,52.45
2022-11-27T14:08:31.600Z,58.55
2022-11-27T14:09:38.897Z,56.67
2022-11-27T14:10:56.684Z,58.40
2022-11-27T14:11:59.351Z,52.35
2022-11-27T14:13:04.414Z,52.03
2022-11-27T14:14:14.609Z,55.10
2022-11-27T14:15:17.226Z,50.63
2022-11-27T14:16:22.847Z,58.55
2022-11-27T14:17:39.911Z,61.97
2022-11-27T14:18:51.059Z,56.38
2022-11-27T14:20:05.183Z,66.80
2022-11-27T14:21:07.794Z,56.33
2022-11-27T14:22:40.815Z,61.60
2022-11-27T14:23:56.769Z,56.90
2022-11-27T14:24:59.439Z,54.45
2022-11-27T14:26:24.245Z,58.45
2022-11-27T14:27:33.581Z,62.00
2022-11-27T14:28:37.296Z,63.10
2022-11-27T14:29:40.099Z,58.38
2022-11-27T14:30:51.378Z,55.58
2022-11-27T14:31:59.391Z,57.47
2022-11-27T14:33:06.014Z,59.50
2022-11-27T14:34:29.143Z,67.32
2022-11-27T14:35:31.845Z,56.45
2022-11-27T14:36:35.528Z,64.07
2022-11-27T14:37:38.123Z,61.75
2022-11-27T14:38:40.837Z,67.25